PWSweather.com
Personal Weather Stations
Station Observations
N3SME
Betz Creek, Wilmington Island, Savannah, GA 31410

Betz Creek, Wilmington IslandSavannah, GA 31410

Lat: 32.023021, Lon: -80.959452

Elevation: 15

Station Type: Ambient

High Low Average
Temperature 61.0°F16.1°C 46.8°F8.2°C 53.7°F12.1°C
Dew Point 57.3°F14.1°C 9.7°F-12.4°C 35.7°F2.1°C
Winds 12.1 mph 19.5 kmh Calm Calm 5.0 mph WNW8.0 kmh WNW
Wind Gusts 28.9 mph46.5 kmh 6.0 mph9.7 kmh 16.0 mph25.7 kmh
Humidity 99% 17% 65%
Pressure 29.64 in1003.7 mb 29.27 in991.2 mb -
Precipitation 1.64 in41.7 mm - -
Hour Temp Dew Point Humidity Winds Wind Gusts Pressure Precip Precip Rate Daily Precip Total
12:05 AM 57.9°F14.4°C 57.6°F14.2°C 99% Calm Calm 5.4 mph8.7 kmh 29.32 in992.9 mb 0.24 in6.1 mm 2.88 in/hr73.2 mm/hr 1.93 in49.0 mm
12:20 AM 57.9°F14.4°C 57.6°F14.2°C 99% 1.6 mph NW2.6 kmh NW 6.0 mph9.7 kmh 29.33 in993.2 mb 0.25 in6.4 mm 0.04 in/hr1.0 mm/hr 1.96 in49.8 mm
12:34 AM 57.7°F14.3°C 57.5°F14.2°C 99% Calm Calm 6.0 mph9.7 kmh 29.33 in993.2 mb 0.24 in6.1 mm 0.00 in/hr0.0 mm/hr 2.02 in51.3 mm
12:49 AM 57.6°F14.2°C 57.3°F14.1°C 99% 0.7 mph N1.1 kmh N 4.5 mph7.2 kmh 29.32 in992.9 mb 0.24 in6.1 mm 0.00 in/hr0.0 mm/hr 2.10 in53.3 mm
01:04 AM 57.6°F14.2°C 57.3°F14.1°C 99% 3.1 mph N5.0 kmh N 6.0 mph9.7 kmh 29.32 in992.9 mb 0.22 in5.6 mm 0.00 in/hr0.0 mm/hr 0.01 in0.3 mm
01:19 AM 56.1°F13.4°C 55.8°F13.2°C 99% Calm Calm 12.1 mph19.5 kmh 29.27 in991.2 mb 0.27 in6.9 mm 0.20 in/hr5.1 mm/hr 0.08 in2.0 mm
01:34 AM 55.4°F13.0°C 55.1°F12.8°C 99% 2.2 mph NNW3.5 kmh NNW 12.1 mph19.5 kmh 29.31 in992.6 mb 0.24 in6.1 mm 0.00 in/hr0.0 mm/hr 0.11 in2.8 mm
01:49 AM 54.3°F12.4°C 54.0°F12.2°C 99% 6.0 mph NNW9.7 kmh NNW 11.4 mph18.3 kmh 29.31 in992.6 mb 0.20 in5.1 mm 0.00 in/hr0.0 mm/hr 0.15 in3.8 mm
02:05 AM 53.6°F12.0°C 53.3°F11.8°C 99% 4.5 mph WNW7.2 kmh WNW 11.4 mph18.3 kmh 29.34 in993.6 mb 0.25 in6.4 mm 0.07 in/hr1.8 mm/hr 0.26 in6.6 mm
02:20 AM 52.2°F11.2°C 51.9°F11.1°C 99% 3.1 mph NNW5.0 kmh NNW 12.1 mph19.5 kmh 29.31 in992.6 mb 0.24 in6.1 mm 0.00 in/hr0.0 mm/hr 0.33 in8.4 mm
02:35 AM 51.3°F10.7°C 51.0°F10.6°C 99% 3.8 mph NW6.1 kmh NW 14.5 mph23.3 kmh 29.33 in993.2 mb 0.32 in8.1 mm 0.32 in/hr8.1 mm/hr 0.43 in10.9 mm
02:50 AM 50.9°F10.5°C 50.6°F10.3°C 99% 3.1 mph NW5.0 kmh NW 10.7 mph17.2 kmh 29.31 in992.6 mb 0.33 in8.4 mm 0.04 in/hr1.0 mm/hr 0.48 in12.2 mm
03:05 AM 50.9°F10.5°C 50.6°F10.3°C 99% 3.8 mph NW6.1 kmh NW 9.2 mph14.8 kmh 29.30 in992.2 mb 0.22 in5.6 mm 0.00 in/hr0.0 mm/hr 0.48 in12.2 mm
03:19 AM 50.7°F10.4°C 50.4°F10.2°C 99% 2.2 mph NW3.5 kmh NW 14.5 mph23.3 kmh 29.31 in992.6 mb 0.15 in3.8 mm 0.00 in/hr0.0 mm/hr 0.48 in12.2 mm
03:34 AM 50.5°F10.3°C 50.3°F10.2°C 99% 2.2 mph NW3.5 kmh NW 13.6 mph21.9 kmh 29.28 in991.5 mb 0.08 in2.0 mm 0.00 in/hr0.0 mm/hr 0.51 in13.0 mm
03:49 AM 50.7°F10.4°C 50.4°F10.2°C 99% 6.0 mph NW9.7 kmh NW 12.1 mph19.5 kmh 29.31 in992.6 mb 0.06 in1.5 mm 0.00 in/hr0.0 mm/hr 0.54 in13.7 mm
04:05 AM 50.7°F10.4°C 50.4°F10.2°C 99% 5.4 mph NW8.7 kmh NW 11.4 mph18.3 kmh 29.30 in992.2 mb 0.13 in3.3 mm 0.10 in/hr2.5 mm/hr 0.61 in15.5 mm
04:19 AM 50.7°F10.4°C 50.4°F10.2°C 99% 1.6 mph NW2.6 kmh NW 9.8 mph15.8 kmh 29.28 in991.5 mb 0.15 in3.8 mm 0.09 in/hr2.3 mm/hr 0.64 in16.3 mm
04:34 AM 50.7°F10.4°C 50.4°F10.2°C 99% 5.4 mph N8.7 kmh N 9.8 mph15.8 kmh 29.28 in991.5 mb 0.15 in3.8 mm 0.00 in/hr0.0 mm/hr 0.66 in16.8 mm
04:49 AM 50.5°F10.3°C 50.3°F10.2°C 99% 3.8 mph NW6.1 kmh NW 14.5 mph23.3 kmh 29.30 in992.2 mb 0.17 in4.3 mm 0.08 in/hr2.0 mm/hr 0.71 in18.0 mm
05:04 AM 50.0°F10.0°C 49.7°F9.8°C 99% 6.0 mph NNW9.7 kmh NNW 20.6 mph33.2 kmh 29.31 in992.6 mb 0.18 in4.6 mm 0.01 in/hr0.3 mm/hr 0.79 in20.1 mm
05:19 AM 49.5°F9.7°C 49.2°F9.6°C 99% 4.5 mph NW7.2 kmh NW 13.6 mph21.9 kmh 29.28 in991.5 mb 0.24 in6.1 mm 0.24 in/hr6.1 mm/hr 0.87 in22.1 mm
05:34 AM 48.7°F9.3°C 48.5°F9.2°C 99% 5.4 mph NW8.7 kmh NW 14.5 mph23.3 kmh 29.31 in992.6 mb 0.26 in6.6 mm 0.08 in/hr2.0 mm/hr 0.92 in23.4 mm
05:49 AM 47.5°F8.6°C 47.2°F8.4°C 99% 2.2 mph WNW3.5 kmh WNW 18.3 mph29.5 kmh 29.29 in991.9 mb 0.27 in6.9 mm 0.04 in/hr1.0 mm/hr 0.98 in24.9 mm
06:04 AM 47.1°F8.4°C 46.9°F8.3°C 99% 2.2 mph N3.5 kmh N 8.3 mph13.4 kmh 29.31 in992.6 mb 0.25 in6.4 mm 0.00 in/hr0.0 mm/hr 1.05 in26.7 mm
06:19 AM 46.9°F8.3°C 46.7°F8.2°C 99% 3.1 mph NW5.0 kmh NW 14.5 mph23.3 kmh 29.34 in993.6 mb 0.19 in4.8 mm 0.00 in/hr0.0 mm/hr 1.06 in26.9 mm
06:34 AM 46.9°F8.3°C 46.7°F8.2°C 99% 6.0 mph W9.7 kmh W 11.4 mph18.3 kmh 29.35 in993.9 mb 0.17 in4.3 mm 0.00 in/hr0.0 mm/hr 1.10 in27.9 mm
06:49 AM 46.8°F8.2°C 46.5°F8.1°C 99% 6.9 mph WNW11.1 kmh WNW 14.5 mph23.3 kmh 29.35 in993.9 mb 0.13 in3.3 mm 0.00 in/hr0.0 mm/hr 1.12 in28.4 mm
07:04 AM 46.8°F8.2°C 46.5°F8.1°C 99% 1.6 mph WNW2.6 kmh WNW 16.8 mph27.0 kmh 29.40 in995.6 mb 0.11 in2.8 mm 0.00 in/hr0.0 mm/hr 1.15 in29.2 mm
07:19 AM 46.8°F8.2°C 46.5°F8.1°C 99% 5.4 mph NW8.7 kmh NW 15.9 mph25.6 kmh 29.36 in994.2 mb 0.09 in2.3 mm 0.00 in/hr0.0 mm/hr 1.16 in29.5 mm
07:34 AM 46.9°F8.3°C 46.7°F8.2°C 99% 2.2 mph W3.5 kmh W 13.0 mph20.9 kmh 29.37 in994.6 mb 0.07 in1.8 mm 0.00 in/hr0.0 mm/hr 1.16 in29.5 mm
07:49 AM 46.9°F8.3°C 46.7°F8.2°C 99% 3.8 mph WNW6.1 kmh WNW 13.0 mph20.9 kmh 29.40 in995.6 mb 0.08 in2.0 mm 0.04 in/hr1.0 mm/hr 1.19 in30.2 mm
08:05 AM 46.9°F8.3°C 46.7°F8.2°C 99% 1.6 mph NNW2.6 kmh NNW 10.7 mph17.2 kmh 29.38 in994.9 mb 0.06 in1.5 mm 0.00 in/hr0.0 mm/hr 1.20 in30.5 mm
08:19 AM 46.9°F8.3°C 46.7°F8.2°C 99% 0.7 mph NW1.1 kmh NW 10.7 mph17.2 kmh 29.39 in995.3 mb 0.05 in1.3 mm 0.00 in/hr0.0 mm/hr 1.20 in30.5 mm
08:34 AM 47.1°F8.4°C 46.9°F8.3°C 99% 0.7 mph WNW1.1 kmh WNW 6.9 mph11.1 kmh 29.43 in996.6 mb 0.05 in1.3 mm 0.00 in/hr0.0 mm/hr 1.20 in30.5 mm
08:49 AM 47.3°F8.5°C 47.0°F8.3°C 99% Calm Calm 11.4 mph18.3 kmh 29.44 in997.0 mb 0.01 in0.3 mm 0.00 in/hr0.0 mm/hr 1.20 in30.5 mm
09:04 AM 47.3°F8.5°C 47.0°F8.3°C 99% 4.5 mph WNW7.2 kmh WNW 11.4 mph18.3 kmh 29.45 in997.3 mb 0.00 in0.0 mm 0.00 in/hr0.0 mm/hr 1.20 in30.5 mm
09:19 AM 47.5°F8.6°C 47.2°F8.4°C 99% 4.5 mph W7.2 kmh W 12.1 mph19.5 kmh 29.46 in997.6 mb 0.00 in0.0 mm 0.00 in/hr0.0 mm/hr 1.20 in30.5 mm
09:34 AM 47.7°F8.7°C 47.4°F8.6°C 99% 4.5 mph WNW7.2 kmh WNW 9.8 mph15.8 kmh 29.45 in997.3 mb 0.00 in0.0 mm 0.00 in/hr0.0 mm/hr 1.20 in30.5 mm
09:49 AM 48.2°F9.0°C 47.4°F8.6°C 97% 3.1 mph W5.0 kmh W 13.6 mph21.9 kmh 29.47 in998.0 mb 0.00 in0.0 mm 0.00 in/hr0.0 mm/hr 1.20 in30.5 mm
10:05 AM 49.3°F9.6°C 47.3°F8.5°C 93% 2.2 mph WNW3.5 kmh WNW 12.1 mph19.5 kmh 29.49 in998.6 mb 0.00 in0.0 mm 0.00 in/hr0.0 mm/hr 1.20 in30.5 mm
10:20 AM 49.8°F9.9°C 47.0°F8.3°C 90% 3.1 mph W5.0 kmh W 13.0 mph20.9 kmh 29.48 in998.3 mb 0.00 in0.0 mm 0.00 in/hr0.0 mm/hr 1.20 in30.5 mm
10:34 AM 50.7°F10.4°C 45.4°F7.4°C 82% 6.0 mph WNW9.7 kmh WNW 13.6 mph21.9 kmh 29.49 in998.6 mb 0.00 in0.0 mm 0.00 in/hr0.0 mm/hr 1.20 in30.5 mm
10:49 AM 53.1°F11.7°C 45.6°F7.6°C 76% 2.2 mph WNW3.5 kmh WNW 11.4 mph18.3 kmh 29.50 in999.0 mb 0.00 in0.0 mm 0.00 in/hr0.0 mm/hr 1.20 in30.5 mm
11:04 AM 55.0°F12.8°C 41.0°F5.0°C 60% 1.6 mph NW2.6 kmh NW 15.9 mph25.6 kmh 29.50 in999.0 mb 0.01 in0.3 mm 0.01 in/hr0.3 mm/hr 1.22 in31.0 mm
11:19 AM 53.8°F12.1°C 39.4°F4.1°C 59% 1.6 mph NW2.6 kmh NW 21.3 mph34.3 kmh 29.52 in999.7 mb 0.01 in0.3 mm 0.00 in/hr0.0 mm/hr 1.22 in31.0 mm
11:34 AM 53.6°F12.0°C 38.7°F3.7°C 58% 1.6 mph NW2.6 kmh NW 18.3 mph29.5 kmh 29.52 in999.7 mb 0.01 in0.3 mm 0.00 in/hr0.0 mm/hr 1.22 in31.0 mm
11:49 AM 53.8°F12.1°C 36.4°F2.4°C 53% 3.8 mph WNW6.1 kmh WNW 15.2 mph24.5 kmh 29.52 in999.7 mb 0.01 in0.3 mm 0.00 in/hr0.0 mm/hr 1.22 in31.0 mm
12:05 PM 54.0°F12.2°C 32.7°F0.4°C 46% 8.3 mph NNW13.4 kmh NNW 16.8 mph27.0 kmh 29.52 in999.7 mb 0.00 in0.0 mm 0.00 in/hr0.0 mm/hr 1.22 in31.0 mm
12:20 PM 55.6°F13.1°C 33.6°F0.9°C 45% 3.1 mph NW5.0 kmh NW 13.0 mph20.9 kmh 29.52 in999.7 mb 0.00 in0.0 mm 0.00 in/hr0.0 mm/hr 1.22 in31.0 mm
12:35 PM 57.7°F14.3°C 33.6°F0.9°C 42% 5.4 mph W8.7 kmh W 15.9 mph25.6 kmh 29.52 in999.7 mb 0.00 in0.0 mm 0.00 in/hr0.0 mm/hr 1.22 in31.0 mm
12:50 PM 58.3°F14.6°C 29.0°F-1.7°C 35% 6.9 mph WNW11.1 kmh WNW 19.0 mph30.6 kmh 29.52 in999.7 mb 0.00 in0.0 mm 0.00 in/hr0.0 mm/hr 1.22 in31.0 mm
01:05 PM 58.8°F14.9°C 27.8°F-2.3°C 33% 7.6 mph NW12.2 kmh NW 24.4 mph39.3 kmh 29.52 in999.7 mb 0.00 in0.0 mm 0.00 in/hr0.0 mm/hr 1.22 in31.0 mm
01:20 PM 59.7°F15.4°C 29.4°F-1.4°C 34% 4.5 mph NW7.2 kmh NW 19.7 mph31.7 kmh 29.52 in999.7 mb 0.00 in0.0 mm 0.00 in/hr0.0 mm/hr 1.22 in31.0 mm
01:34 PM 59.4°F15.2°C 27.4°F-2.6°C 32% 8.3 mph WNW13.4 kmh WNW 20.6 mph33.2 kmh 29.52 in999.7 mb 0.00 in0.0 mm 0.00 in/hr0.0 mm/hr 1.22 in31.0 mm
01:49 PM 59.0°F15.0°C 25.3°F-3.7°C 30% 7.6 mph W12.2 kmh W 26.6 mph42.8 kmh 29.53 in1000.0 mb 0.00 in0.0 mm 0.00 in/hr0.0 mm/hr 1.22 in31.0 mm
02:05 PM 59.4°F15.2°C 24.7°F-4.1°C 29% 3.8 mph NW6.1 kmh NW 22.8 mph36.7 kmh 29.53 in1000.0 mb 0.01 in0.3 mm 0.01 in/hr0.3 mm/hr 1.23 in31.2 mm
02:20 PM 59.9°F15.5°C 26.1°F-3.3°C 30% 6.9 mph WNW11.1 kmh WNW 17.4 mph28.0 kmh 29.52 in999.7 mb 0.01 in0.3 mm 0.00 in/hr0.0 mm/hr 1.23 in31.2 mm
02:35 PM 59.7°F15.4°C 19.6°F-6.9°C 24% 9.8 mph W15.8 kmh W 23.5 mph37.8 kmh 29.52 in999.7 mb 0.04 in1.0 mm 0.12 in/hr3.0 mm/hr 1.25 in31.8 mm
02:50 PM 59.5°F15.3°C 14.4°F-9.8°C 20% 7.6 mph NW12.2 kmh NW 20.6 mph33.2 kmh 29.52 in999.7 mb 0.04 in1.0 mm 0.00 in/hr0.0 mm/hr 1.25 in31.8 mm
03:05 PM 60.3°F15.7°C 13.5°F-10.3°C 19% 9.8 mph WNW15.8 kmh WNW 22.8 mph36.7 kmh 29.53 in1000.0 mb 0.02 in0.5 mm 0.00 in/hr0.0 mm/hr 1.25 in31.8 mm
03:20 PM 60.1°F15.6°C 10.2°F-12.1°C 17% 10.7 mph WNW17.2 kmh WNW 24.4 mph39.3 kmh 29.53 in1000.0 mb 0.02 in0.5 mm 0.00 in/hr0.0 mm/hr 1.25 in31.8 mm
03:34 PM 60.6°F15.9°C 13.8°F-10.1°C 19% 1.6 mph NW2.6 kmh NW 16.8 mph27.0 kmh 29.53 in1000.0 mb 0.04 in1.0 mm 0.09 in/hr2.3 mm/hr 1.29 in32.8 mm
03:49 PM 61.0°F16.1°C 14.1°F-9.9°C 19% 8.3 mph WNW13.4 kmh WNW 19.0 mph30.6 kmh 29.53 in1000.0 mb 0.04 in1.0 mm 0.00 in/hr0.0 mm/hr 1.29 in32.8 mm
04:05 PM 59.7°F15.4°C 11.6°F-11.3°C 18% 4.5 mph NW7.2 kmh NW 26.6 mph42.8 kmh 29.53 in1000.0 mb 0.05 in1.3 mm 0.01 in/hr0.3 mm/hr 1.30 in33.0 mm
04:20 PM 60.3°F15.7°C 10.4°F-12.0°C 17% 7.6 mph WNW12.2 kmh WNW 19.7 mph31.7 kmh 29.54 in1000.3 mb 0.05 in1.3 mm 0.00 in/hr0.0 mm/hr 1.30 in33.0 mm
04:35 PM 60.4°F15.8°C 10.5°F-11.9°C 17% 12.1 mph WNW19.5 kmh WNW 25.1 mph40.4 kmh 29.54 in1000.3 mb 0.08 in2.0 mm 0.12 in/hr3.0 mm/hr 1.37 in34.8 mm
04:51 PM 60.3°F15.7°C 13.5°F-10.3°C 19% 3.1 mph NW5.0 kmh NW 20.6 mph33.2 kmh 29.55 in1000.7 mb 0.08 in2.0 mm 0.00 in/hr0.0 mm/hr 1.37 in34.8 mm
05:05 PM 59.5°F15.3°C 9.8°F-12.3°C 17% 8.3 mph NW13.4 kmh NW 24.4 mph39.3 kmh 29.56 in1001.0 mb 0.07 in1.8 mm 0.00 in/hr0.0 mm/hr 1.37 in34.8 mm
05:20 PM 59.5°F15.3°C 12.9°F-10.6°C 19% 4.5 mph NW7.2 kmh NW 19.7 mph31.7 kmh 29.55 in1000.7 mb 0.07 in1.8 mm 0.00 in/hr0.0 mm/hr 1.37 in34.8 mm
05:35 PM 59.4°F15.2°C 9.7°F-12.4°C 17% 4.5 mph WNW7.2 kmh WNW 26.6 mph42.8 kmh 29.57 in1001.4 mb 0.00 in0.0 mm 0.00 in/hr0.0 mm/hr 1.37 in34.8 mm
05:50 PM 59.2°F15.1°C 12.7°F-10.7°C 19% 6.9 mph NW11.1 kmh NW 21.3 mph34.3 kmh 29.56 in1001.0 mb 0.00 in0.0 mm 0.00 in/hr0.0 mm/hr 1.37 in34.8 mm
06:05 PM 58.6°F14.8°C 10.7°F-11.8°C 18% 3.8 mph WNW6.1 kmh WNW 17.4 mph28.0 kmh 29.58 in1001.7 mb 0.00 in0.0 mm 0.00 in/hr0.0 mm/hr 1.37 in34.8 mm
06:20 PM 58.1°F14.5°C 10.3°F-12.1°C 18% 5.4 mph NW8.7 kmh NW 28.9 mph46.5 kmh 29.59 in1002.0 mb 0.24 in6.1 mm 0.96 in/hr24.4 mm/hr 1.61 in40.9 mm
06:35 PM 57.6°F14.2°C 12.8°F-10.7°C 20% 8.3 mph WNW13.4 kmh WNW 19.7 mph31.7 kmh 29.60 in1002.4 mb 0.27 in6.9 mm 0.12 in/hr3.0 mm/hr 1.64 in41.7 mm
06:49 PM 56.7°F13.7°C 14.7°F-9.6°C 22% 3.8 mph WNW6.1 kmh WNW 15.2 mph24.5 kmh 29.61 in1002.7 mb 0.27 in6.9 mm 0.00 in/hr0.0 mm/hr 1.64 in41.7 mm
07:04 PM 56.1°F13.4°C 14.3°F-9.8°C 22% 6.9 mph WNW11.1 kmh WNW 15.2 mph24.5 kmh 29.62 in1003.0 mb 0.27 in6.9 mm 0.00 in/hr0.0 mm/hr 1.64 in41.7 mm
07:19 PM 55.6°F13.1°C 15.1°F-9.4°C 23% 3.8 mph NW6.1 kmh NW 19.7 mph31.7 kmh 29.62 in1003.0 mb 0.04 in1.0 mm 0.00 in/hr0.0 mm/hr 1.64 in41.7 mm
07:34 PM 54.7°F12.6°C 19.8°F-6.8°C 28% 2.2 mph NW3.5 kmh NW 9.2 mph14.8 kmh 29.64 in1003.7 mb 0.00 in0.0 mm 0.00 in/hr0.0 mm/hr 1.64 in41.7 mm
07:49 PM 54.3°F12.4°C 19.5°F-6.9°C 28% 1.6 mph NW2.6 kmh NW 8.3 mph13.4 kmh 29.65 in1004.1 mb 0.00 in0.0 mm 0.00 in/hr0.0 mm/hr 1.64 in41.7 mm
08:05 PM 53.6°F12.0°C 19.8°F-6.8°C 29% 2.2 mph W3.5 kmh W 6.9 mph11.1 kmh 29.66 in1004.4 mb 0.00 in0.0 mm 0.00 in/hr0.0 mm/hr 1.64 in41.7 mm
08:20 PM 53.1°F11.7°C 20.3°F-6.5°C 30% Calm Calm 4.5 mph7.2 kmh 29.67 in1004.7 mb 0.00 in0.0 mm 0.00 in/hr0.0 mm/hr 1.64 in41.7 mm
08:35 PM 52.3°F11.3°C 21.4°F-5.9°C 32% Calm Calm 3.8 mph6.1 kmh 29.69 in1005.4 mb 0.00 in0.0 mm 0.00 in/hr0.0 mm/hr 1.64 in41.7 mm
08:50 PM 51.6°F10.9°C 23.2°F-4.9°C 35% Calm Calm 4.5 mph7.2 kmh 29.70 in1005.8 mb 0.00 in0.0 mm 0.00 in/hr0.0 mm/hr 1.64 in41.7 mm
09:20 PM 49.1°F9.5°C 27.2°F-2.7°C 44% 0.7 mph NW1.1 kmh NW 1.6 mph2.6 kmh 29.71 in1006.1 mb 0.00 in0.0 mm 0.00 in/hr0.0 mm/hr 1.64 in41.7 mm
09:35 PM 47.5°F8.6°C 28.0°F-2.2°C 48% Calm Calm 2.2 mph3.5 kmh 29.72 in1006.4 mb 0.00 in0.0 mm 0.00 in/hr0.0 mm/hr 1.64 in41.7 mm
09:50 PM 46.4°F8.0°C 28.7°F-1.8°C 51% Calm Calm 1.6 mph2.6 kmh 29.73 in1006.8 mb 0.00 in0.0 mm 0.00 in/hr0.0 mm/hr 1.64 in41.7 mm
10:05 PM 45.7°F7.6°C 30.0°F-1.1°C 55% Calm Calm 2.2 mph3.5 kmh 29.74 in1007.1 mb 0.00 in0.0 mm 0.00 in/hr0.0 mm/hr 1.64 in41.7 mm
10:20 PM 45.0°F7.2°C 30.7°F-0.7°C 58% Calm Calm 1.6 mph2.6 kmh 29.74 in1007.1 mb 0.00 in0.0 mm 0.00 in/hr0.0 mm/hr 1.64 in41.7 mm
10:35 PM 44.2°F6.8°C 31.4°F-0.3°C 61% Calm Calm 1.6 mph2.6 kmh 29.75 in1007.5 mb 0.00 in0.0 mm 0.00 in/hr0.0 mm/hr 1.64 in41.7 mm
10:50 PM 43.9°F6.6°C 32.3°F0.2°C 64% Calm Calm 1.6 mph2.6 kmh 29.75 in1007.5 mb 0.00 in0.0 mm 0.00 in/hr0.0 mm/hr 1.64 in41.7 mm
11:05 PM 43.5°F6.4°C 33.1°F0.6°C 67% 0.7 mph NW1.1 kmh NW 2.2 mph3.5 kmh 29.75 in1007.5 mb 0.00 in0.0 mm 0.00 in/hr0.0 mm/hr 1.64 in41.7 mm
11:20 PM 43.3°F6.3°C 33.3°F0.7°C 68% 0.7 mph NW1.1 kmh NW 2.2 mph3.5 kmh 29.75 in1007.5 mb 0.00 in0.0 mm 0.00 in/hr0.0 mm/hr 1.64 in41.7 mm
11:34 PM 43.0°F6.1°C 33.7°F0.9°C 70% 0.7 mph NW1.1 kmh NW 2.2 mph3.5 kmh 29.76 in1007.8 mb 0.00 in0.0 mm 0.00 in/hr0.0 mm/hr 1.64 in41.7 mm
11:49 PM 42.8°F6.0°C 33.9°F1.1°C 71% Calm Calm 1.6 mph2.6 kmh 29.77 in1008.1 mb 0.00 in0.0 mm 0.00 in/hr0.0 mm/hr 1.64 in41.7 mm